createdAt,value
2019-05-18T00:00:44.644Z,18.60
2019-05-18T00:03:15.201Z,18.50
2019-05-18T00:05:45.663Z,18.50
2019-05-18T00:08:16.202Z,18.50
2019-05-18T00:10:46.783Z,18.50
2019-05-18T00:13:17.302Z,18.40
2019-05-18T00:15:47.858Z,18.40
2019-05-18T00:18:18.492Z,18.40
2019-05-18T00:20:49.058Z,18.40
2019-05-18T00:23:19.618Z,18.30
2019-05-18T00:25:50.256Z,18.30
2019-05-18T00:28:20.809Z,18.30
2019-05-18T00:30:51.486Z,18.30
2019-05-18T00:33:22.093Z,18.30
2019-05-18T00:35:52.602Z,18.20
2019-05-18T00:38:23.316Z,18.20
2019-05-18T00:40:53.854Z,18.20
2019-05-18T00:43:25.850Z,18.20
2019-05-18T00:45:56.394Z,18.10
2019-05-18T00:48:27.055Z,18.10
2019-05-18T00:50:57.590Z,18.10
2019-05-18T00:53:28.138Z,18.00
2019-05-18T00:56:00.026Z,18.00
2019-05-18T00:58:30.853Z,18.00
2019-05-18T01:01:01.411Z,17.90
2019-05-18T01:03:33.171Z,17.90
2019-05-18T01:06:03.753Z,17.90
2019-05-18T01:08:35.436Z,17.90
2019-05-18T01:11:07.301Z,17.90
2019-05-18T01:13:37.857Z,17.80
2019-05-18T01:16:09.470Z,17.80
2019-05-18T01:18:41.325Z,17.80
2019-05-18T01:21:11.866Z,17.70
2019-05-18T01:23:42.511Z,17.70
2019-05-18T01:26:13.087Z,17.70
2019-05-18T01:28:43.615Z,17.70
2019-05-18T01:31:14.335Z,17.60
2019-05-18T01:33:44.872Z,17.60
2019-05-18T01:36:15.458Z,17.60
2019-05-18T01:38:45.997Z,17.60
2019-05-18T01:41:16.532Z,17.50
2019-05-18T01:43:47.042Z,17.50
2019-05-18T01:46:17.627Z,17.50
2019-05-18T01:48:49.233Z,17.50
2019-05-18T01:51:20.900Z,17.50
2019-05-18T01:53:51.452Z,17.40
2019-05-18T01:56:22.014Z,17.40
2019-05-18T01:58:52.708Z,17.40
2019-05-18T02:01:24.758Z,17.40
2019-05-18T02:03:55.426Z,17.30
2019-05-18T02:06:26.086Z,17.30
2019-05-18T02:08:56.788Z,17.30
2019-05-18T02:11:27.330Z,17.30
2019-05-18T02:13:57.876Z,17.30
2019-05-18T02:16:28.441Z,17.30
2019-05-18T02:18:58.968Z,17.30
2019-05-18T02:21:29.537Z,17.20
2019-05-18T02:24:01.302Z,17.20
2019-05-18T02:26:31.993Z,17.20
2019-05-18T02:29:03.166Z,17.20
2019-05-18T02:31:33.759Z,17.10
2019-05-18T02:34:04.383Z,17.10
2019-05-18T02:36:36.847Z,17.10
2019-05-18T02:39:09.365Z,17.10
2019-05-18T02:41:40.071Z,17.10
2019-05-18T02:44:10.832Z,17.00
2019-05-18T02:46:41.462Z,17.00
2019-05-18T02:49:11.985Z,17.00
2019-05-18T02:51:43.662Z,17.00
2019-05-18T02:54:15.685Z,17.00
2019-05-18T02:56:46.481Z,17.00
2019-05-18T02:59:17.127Z,17.00
2019-05-18T03:01:47.709Z,17.00
2019-05-18T03:04:18.231Z,17.00
2019-05-18T03:06:48.794Z,17.00
2019-05-18T03:09:19.383Z,17.00
2019-05-18T03:11:49.989Z,17.00
2019-05-18T03:14:20.601Z,17.00
2019-05-18T03:16:51.377Z,16.90
2019-05-18T03:19:21.920Z,16.90
2019-05-18T03:21:52.516Z,16.90
2019-05-18T03:24:24.541Z,16.90
2019-05-18T03:26:55.095Z,16.90
2019-05-18T03:29:25.663Z,16.80
2019-05-18T03:31:56.290Z,16.80
2019-05-18T03:34:27.138Z,16.80
2019-05-18T03:37:16.745Z,16.90
2019-05-18T03:39:47.570Z,16.90
2019-05-18T03:42:18.144Z,16.90
2019-05-18T03:44:48.897Z,16.90
2019-05-18T03:47:19.821Z,17.00
2019-05-18T03:49:50.360Z,17.10
2019-05-18T03:52:20.992Z,17.10
2019-05-18T03:54:51.498Z,17.20
2019-05-18T03:57:23.575Z,17.30
2019-05-18T03:59:54.272Z,17.40
2019-05-18T04:02:24.847Z,17.50
2019-05-18T04:04:57.299Z,17.60
2019-05-18T04:07:28.961Z,17.70
2019-05-18T04:09:59.497Z,17.80
2019-05-18T04:12:31.173Z,17.90
2019-05-18T04:15:01.732Z,18.10
2019-05-18T04:17:32.475Z,18.20
2019-05-18T04:20:03.023Z,18.30
2019-05-18T04:22:33.541Z,18.50
2019-05-18T04:25:04.268Z,18.70
2019-05-18T04:27:34.819Z,18.80
2019-05-18T04:30:05.968Z,18.80
2019-05-18T04:32:37.957Z,18.90
2019-05-18T04:35:09.123Z,19.00
2019-05-18T04:37:39.721Z,19.20
2019-05-18T04:40:10.915Z,19.30
2019-05-18T04:42:43.279Z,19.50
2019-05-18T04:45:14.781Z,19.60
2019-05-18T04:47:48.493Z,19.70
2019-05-18T04:50:18.006Z,19.80
2019-05-18T04:52:48.609Z,19.70
2019-05-18T04:55:19.280Z,19.70
2019-05-18T04:57:49.933Z,19.60
2019-05-18T05:00:20.526Z,19.60
2019-05-18T05:02:52.196Z,19.60
2019-05-18T05:05:22.778Z,19.60
2019-05-18T05:07:53.381Z,19.50
2019-05-18T05:10:23.940Z,19.50
2019-05-18T05:12:54.629Z,19.50
2019-05-18T05:15:25.281Z,19.60
2019-05-18T05:17:55.891Z,19.60
2019-05-18T05:20:26.466Z,19.60
2019-05-18T05:22:57.045Z,19.60
2019-05-18T05:25:29.440Z,19.60
2019-05-18T05:27:59.979Z,19.60
2019-05-18T05:30:30.616Z,19.70
2019-05-18T05:33:01.239Z,19.70
2019-05-18T05:35:31.802Z,19.80
2019-05-18T05:38:03.708Z,19.90
2019-05-18T05:40:34.300Z,19.90
2019-05-18T05:43:04.832Z,20.00
2019-05-18T05:45:35.430Z,20.10
2019-05-18T05:48:06.055Z,20.20
2019-05-18T05:50:36.908Z,20.30
2019-05-18T05:53:10.684Z,20.30
2019-05-18T05:55:42.563Z,20.40
2019-05-18T05:58:13.235Z,20.40
2019-05-18T06:00:43.781Z,20.50
2019-05-18T06:03:14.341Z,20.60
2019-05-18T06:05:45.005Z,20.70
2019-05-18T06:08:15.584Z,20.90
2019-05-18T06:10:47.643Z,21.00
2019-05-18T06:13:18.269Z,21.10
2019-05-18T06:15:53.686Z,21.30
2019-05-18T06:18:24.279Z,21.50
2019-05-18T06:20:54.955Z,21.80
2019-05-18T06:23:25.500Z,22.10
2019-05-18T06:25:57.153Z,22.50
2019-05-18T06:28:27.784Z,23.00
2019-05-18T06:30:58.460Z,23.40
2019-05-18T06:33:29.036Z,23.90
2019-05-18T06:35:59.593Z,24.50
2019-05-18T06:38:30.153Z,24.90
2019-05-18T06:41:00.739Z,25.30
2019-05-18T06:43:31.266Z,25.70
2019-05-18T06:46:01.829Z,26.00
2019-05-18T06:48:32.330Z,26.30
2019-05-18T06:51:07.069Z,26.60
2019-05-18T06:53:36.492Z,26.90
2019-05-18T06:56:07.146Z,27.20
2019-05-18T06:58:39.004Z,27.50
2019-05-18T07:01:09.588Z,27.70
2019-05-18T07:03:44.595Z,27.70
2019-05-18T07:06:13.719Z,27.50
2019-05-18T07:08:45.730Z,27.20
2019-05-18T07:11:16.305Z,26.80
2019-05-18T07:13:47.005Z,26.50
2019-05-18T07:16:17.659Z,26.50
2019-05-18T07:18:48.209Z,26.70
2019-05-18T07:21:22.441Z,27.00
2019-05-18T07:23:51.127Z,27.40
2019-05-18T07:26:21.726Z,27.80
2019-05-18T07:28:52.311Z,28.30
2019-05-18T07:31:23.048Z,28.70
2019-05-18T07:33:53.695Z,29.10
2019-05-18T07:36:26.238Z,29.50
2019-05-18T07:38:56.901Z,29.90
2019-05-18T07:41:27.507Z,30.00
2019-05-18T07:43:58.135Z,30.30
2019-05-18T07:46:28.787Z,30.60
2019-05-18T07:48:59.336Z,30.80
2019-05-18T07:51:36.967Z,31.20
2019-05-18T07:54:02.807Z,31.50
2019-05-18T07:56:33.600Z,31.80
2019-05-18T07:59:04.397Z,32.00
2019-05-18T08:01:36.437Z,32.10
2019-05-18T08:04:07.018Z,32.20
2019-05-18T08:06:37.637Z,32.40
2019-05-18T08:09:09.346Z,32.60
2019-05-18T08:11:39.950Z,32.90
2019-05-18T08:14:10.517Z,33.00
2019-05-18T08:16:41.174Z,33.10
2019-05-18T08:19:11.747Z,33.20
2019-05-18T08:21:52.641Z,33.30
2019-05-18T08:24:14.779Z,33.40
2019-05-18T08:26:45.342Z,33.30
2019-05-18T08:29:17.047Z,33.20
2019-05-18T08:31:47.620Z,33.00
2019-05-18T08:34:18.163Z,32.80
2019-05-18T08:36:48.708Z,32.70
2019-05-18T08:39:19.260Z,32.50
2019-05-18T08:41:49.900Z,32.40
2019-05-18T08:44:20.682Z,32.20
2019-05-18T08:46:51.300Z,32.10
2019-05-18T08:49:21.877Z,32.00
2019-05-18T08:52:07.203Z,31.90
2019-05-18T08:54:24.974Z,31.80
2019-05-18T08:56:55.511Z,31.70
2019-05-18T08:59:26.069Z,31.70
2019-05-18T09:01:56.687Z,31.60
2019-05-18T09:04:28.360Z,31.60
2019-05-18T09:06:58.914Z,31.60
2019-05-18T09:09:29.533Z,31.50
2019-05-18T09:12:00.192Z,31.40
2019-05-18T09:14:30.706Z,31.30
2019-05-18T09:17:01.247Z,31.10
2019-05-18T09:19:32.905Z,30.90
2019-05-18T09:22:05.268Z,30.60
2019-05-18T09:24:36.160Z,30.30
2019-05-18T09:27:06.971Z,29.90
2019-05-18T09:29:37.508Z,29.70
2019-05-18T09:32:08.040Z,29.50
2019-05-18T09:34:38.580Z,29.30
2019-05-18T09:37:09.134Z,29.00
2019-05-18T09:39:39.761Z,28.80
2019-05-18T09:42:10.354Z,28.70
2019-05-18T09:44:40.900Z,28.50
2019-05-18T09:47:12.599Z,28.30
2019-05-18T09:49:43.186Z,28.20
2019-05-18T09:52:13.793Z,28.00
2019-05-18T09:54:44.470Z,27.90
2019-05-18T09:57:15.034Z,27.80
2019-05-18T09:59:45.627Z,27.70
2019-05-18T10:02:18.035Z,27.50
2019-05-18T10:04:48.601Z,27.40
2019-05-18T10:07:19.321Z,27.30
2019-05-18T10:09:51.482Z,27.20
2019-05-18T10:12:24.685Z,27.10
2019-05-18T10:14:54.442Z,27.00
2019-05-18T10:17:25.024Z,26.90
2019-05-18T10:19:55.545Z,26.80
2019-05-18T10:22:26.124Z,26.80
2019-05-18T10:24:56.785Z,26.70
2019-05-18T10:27:27.368Z,26.50
2019-05-18T10:29:57.902Z,26.40
2019-05-18T10:32:28.538Z,26.30
2019-05-18T10:34:59.119Z,26.20
2019-05-18T10:37:29.661Z,26.20
2019-05-18T10:40:01.301Z,26.10
2019-05-18T10:42:32.262Z,25.90
2019-05-18T10:45:02.876Z,25.80
2019-05-18T10:47:33.489Z,25.70
2019-05-18T10:50:04.178Z,25.70
2019-05-18T10:52:34.774Z,25.60
2019-05-18T10:55:05.903Z,25.60
2019-05-18T10:57:55.503Z,25.50
2019-05-18T11:00:26.587Z,25.40
2019-05-18T11:02:57.204Z,25.30
2019-05-18T11:05:27.754Z,25.30
2019-05-18T11:07:59.423Z,25.20
2019-05-18T11:10:29.989Z,25.20
2019-05-18T11:13:00.555Z,25.10
2019-05-18T11:15:31.121Z,25.00
2019-05-18T11:18:01.795Z,24.90
2019-05-18T11:20:32.324Z,24.90
2019-05-18T11:23:02.916Z,24.90
2019-05-18T11:25:33.569Z,24.90
2019-05-18T11:28:04.293Z,24.90
2019-05-18T11:30:34.959Z,24.80
2019-05-18T11:33:05.716Z,24.80
2019-05-18T11:35:37.387Z,24.80
2019-05-18T11:38:07.950Z,24.80
2019-05-18T11:40:38.522Z,24.80
2019-05-18T11:43:11.113Z,24.80
2019-05-18T11:45:41.706Z,24.80
2019-05-18T11:48:12.315Z,24.80
2019-05-18T11:50:42.898Z,24.80
2019-05-18T11:53:13.463Z,24.80
2019-05-18T11:55:44.039Z,24.80
2019-05-18T11:58:16.308Z,24.80
2019-05-18T12:00:47.452Z,24.80
2019-05-18T12:03:18.137Z,24.80
2019-05-18T12:05:48.728Z,24.70
2019-05-18T12:08:19.380Z,24.70
2019-05-18T12:10:50.059Z,24.70
2019-05-18T12:13:22.409Z,24.70
2019-05-18T12:15:53.160Z,24.70
2019-05-18T12:18:25.028Z,24.70
2019-05-18T12:20:55.650Z,24.70
2019-05-18T12:23:26.299Z,24.70
2019-05-18T12:25:57.023Z,24.80
2019-05-18T12:28:27.616Z,24.80
2019-05-18T12:31:01.979Z,24.80
2019-05-18T12:33:32.295Z,24.80
2019-05-18T12:36:02.900Z,24.80
2019-05-18T12:38:33.527Z,24.80
2019-05-18T12:41:05.561Z,24.80
2019-05-18T12:43:36.116Z,24.80
2019-05-18T12:46:06.681Z,24.80
2019-05-18T12:48:37.365Z,24.80
2019-05-18T12:51:07.941Z,24.80
2019-05-18T12:53:38.765Z,24.80
2019-05-18T12:56:10.592Z,24.80
2019-05-18T12:58:41.222Z,24.80
2019-05-18T13:01:11.809Z,24.80
2019-05-18T13:03:43.540Z,24.80
2019-05-18T13:06:14.285Z,24.80
2019-05-18T13:08:44.814Z,24.80
2019-05-18T13:11:15.581Z,24.80
2019-05-18T13:13:46.141Z,24.80
2019-05-18T13:16:16.723Z,24.80
2019-05-18T13:18:47.275Z,24.80
2019-05-18T13:21:18.901Z,24.80
2019-05-18T13:23:49.472Z,24.80
2019-05-18T13:26:20.129Z,24.90
2019-05-18T13:28:52.038Z,24.90
2019-05-18T13:31:22.612Z,24.90
2019-05-18T13:33:53.162Z,24.80
2019-05-18T13:36:23.899Z,24.80
2019-05-18T13:38:54.469Z,24.80
2019-05-18T13:41:26.562Z,24.80
2019-05-18T13:43:57.403Z,24.90
2019-05-18T13:46:27.978Z,24.80
2019-05-18T13:48:58.569Z,24.90
2019-05-18T13:51:30.608Z,24.90
2019-05-18T13:54:01.985Z,24.90
2019-05-18T13:56:35.105Z,24.90
2019-05-18T13:59:09.736Z,24.90
2019-05-18T14:01:41.491Z,24.90
2019-05-18T14:04:12.042Z,24.90
2019-05-18T14:06:42.734Z,24.90
2019-05-18T14:09:13.327Z,24.90
2019-05-18T14:11:44.178Z,24.90
2019-05-18T14:14:14.732Z,24.90
2019-05-18T14:16:45.291Z,24.90
2019-05-18T14:19:15.941Z,24.90
2019-05-18T14:21:46.520Z,24.90
2019-05-18T14:24:17.160Z,25.00
2019-05-18T14:26:47.754Z,25.00
2019-05-18T14:29:18.326Z,25.00
2019-05-18T14:31:48.906Z,25.00
2019-05-18T14:34:19.460Z,25.00
2019-05-18T14:36:50.050Z,25.00
2019-05-18T14:39:23.193Z,25.00
2019-05-18T14:41:52.941Z,25.10
2019-05-18T14:44:28.259Z,25.10
2019-05-18T14:46:59.112Z,25.10
2019-05-18T14:49:29.675Z,25.10
2019-05-18T14:52:00.308Z,25.10
2019-05-18T14:54:31.010Z,25.10
2019-05-18T14:57:01.585Z,25.10
2019-05-18T14:59:32.101Z,25.10
2019-05-18T15:02:02.725Z,25.10
2019-05-18T15:04:33.324Z,25.10
2019-05-18T15:07:03.938Z,25.10
2019-05-18T15:09:34.714Z,25.10
2019-05-18T15:12:06.745Z,25.20
2019-05-18T15:14:37.317Z,25.10
2019-05-18T15:17:07.920Z,25.10
2019-05-18T15:19:42.327Z,25.10
2019-05-18T15:22:13.152Z,25.10
2019-05-18T15:24:43.835Z,25.10
2019-05-18T15:27:14.429Z,25.20
2019-05-18T15:29:45.083Z,25.20
2019-05-18T15:32:15.791Z,25.20
2019-05-18T15:34:46.325Z,25.20
2019-05-18T15:37:16.991Z,25.20
2019-05-18T15:39:47.532Z,25.20
2019-05-18T15:42:18.140Z,25.20
2019-05-18T15:44:48.746Z,25.20
2019-05-18T15:47:19.332Z,25.20
2019-05-18T15:49:51.350Z,25.20
2019-05-18T15:52:40.985Z,25.20
2019-05-18T15:55:12.876Z,25.20
2019-05-18T15:57:43.448Z,25.20
2019-05-18T16:00:15.114Z,25.20
2019-05-18T16:02:45.681Z,25.20
2019-05-18T16:05:16.617Z,25.20
2019-05-18T16:07:47.414Z,25.20
2019-05-18T16:10:19.361Z,25.20
2019-05-18T16:12:49.931Z,25.20
2019-05-18T16:15:20.789Z,25.20
2019-05-18T16:17:51.378Z,25.20
2019-05-18T16:20:22.114Z,25.20
2019-05-18T16:22:52.736Z,25.20
2019-05-18T16:25:23.353Z,25.20
2019-05-18T16:27:53.894Z,25.20
2019-05-18T16:30:24.822Z,25.20
2019-05-18T16:32:55.388Z,25.20
2019-05-18T16:35:26.035Z,25.20
2019-05-18T16:37:56.883Z,25.20
2019-05-18T16:40:27.429Z,25.20
2019-05-18T16:42:58.061Z,25.20
2019-05-18T16:45:28.627Z,25.20
2019-05-18T16:47:59.233Z,25.20
2019-05-18T16:50:29.811Z,25.20
2019-05-18T16:53:00.356Z,25.30
2019-05-18T16:55:31.165Z,25.20
2019-05-18T16:58:01.747Z,25.20
2019-05-18T17:00:32.306Z,25.20
2019-05-18T17:03:02.844Z,25.20
2019-05-18T17:05:33.428Z,25.20
2019-05-18T17:08:03.976Z,25.20
2019-05-18T17:10:34.754Z,25.20
2019-05-18T17:13:05.306Z,25.20
2019-05-18T17:15:35.874Z,25.20
2019-05-18T17:18:06.592Z,25.20
2019-05-18T17:20:38.244Z,25.20
2019-05-18T17:23:08.759Z,25.20
2019-05-18T17:25:39.391Z,25.20
2019-05-18T17:28:09.928Z,25.20
2019-05-18T17:30:42.666Z,25.20
2019-05-18T17:33:12.817Z,25.10
2019-05-18T17:35:57.938Z,25.10
2019-05-18T17:38:15.797Z,25.10
2019-05-18T17:40:46.422Z,25.00
2019-05-18T17:43:17.006Z,25.00
2019-05-18T17:45:49.149Z,25.00
2019-05-18T17:48:19.701Z,25.00
2019-05-18T17:50:50.288Z,25.00
2019-05-18T17:53:20.810Z,25.00
2019-05-18T17:55:51.495Z,25.00
2019-05-18T17:58:22.149Z,25.00
2019-05-18T18:00:52.724Z,25.00
2019-05-18T18:03:23.298Z,25.00
2019-05-18T18:05:53.982Z,25.00
2019-05-18T18:08:24.487Z,24.90
2019-05-18T18:10:55.146Z,24.90
2019-05-18T18:13:25.776Z,24.90
2019-05-18T18:15:56.439Z,24.90
2019-05-18T18:18:28.129Z,24.90
2019-05-18T18:20:58.711Z,24.90
2019-05-18T18:23:29.438Z,24.90
2019-05-18T18:26:00.189Z,24.90
2019-05-18T18:28:30.781Z,24.80
2019-05-18T18:31:01.413Z,24.80
2019-05-18T18:33:32.076Z,24.80
2019-05-18T18:36:02.712Z,24.80
2019-05-18T18:38:33.255Z,24.80
2019-05-18T18:41:03.873Z,24.70
2019-05-18T18:43:34.440Z,24.70
2019-05-18T18:46:05.064Z,24.70
2019-05-18T18:48:35.631Z,24.70
2019-05-18T18:51:06.190Z,24.70
2019-05-18T18:53:36.828Z,24.60
2019-05-18T18:56:07.484Z,24.60
2019-05-18T18:58:38.044Z,24.60
2019-05-18T19:01:10.410Z,24.50
2019-05-18T19:03:40.944Z,24.50
2019-05-18T19:06:11.649Z,24.50
2019-05-18T19:08:42.131Z,24.40
2019-05-18T19:11:12.990Z,24.40
2019-05-18T19:13:45.660Z,24.40
2019-05-18T19:16:16.058Z,24.30
2019-05-18T19:18:48.103Z,24.30
2019-05-18T19:21:18.695Z,24.20
2019-05-18T19:23:49.231Z,24.20
2019-05-18T19:26:19.810Z,24.20
2019-05-18T19:28:52.268Z,24.10
2019-05-18T19:31:22.888Z,24.10
2019-05-18T19:33:53.427Z,24.00
2019-05-18T19:36:24.129Z,24.00
2019-05-18T19:38:54.758Z,24.00
2019-05-18T19:41:25.317Z,23.90
2019-05-18T19:43:55.847Z,23.90
2019-05-18T19:46:26.406Z,23.90
2019-05-18T19:48:58.983Z,23.80
2019-05-18T19:51:29.577Z,23.80
2019-05-18T19:54:19.203Z,23.70
2019-05-18T19:56:50.409Z,23.70
2019-05-18T19:59:21.249Z,23.60
2019-05-18T20:01:51.887Z,23.60
2019-05-18T20:04:22.565Z,23.50
2019-05-18T20:06:53.143Z,23.50
2019-05-18T20:09:23.793Z,23.50
2019-05-18T20:11:55.321Z,23.40
2019-05-18T20:14:25.942Z,23.40
2019-05-18T20:16:56.548Z,23.30
2019-05-18T20:19:38.705Z,23.30
2019-05-18T20:22:00.663Z,23.30
2019-05-18T20:24:32.308Z,23.20
2019-05-18T20:27:02.910Z,23.20
2019-05-18T20:29:33.432Z,23.10
2019-05-18T20:32:04.125Z,23.10
2019-05-18T20:34:34.683Z,23.10
2019-05-18T20:37:05.238Z,23.00
2019-05-18T20:39:35.897Z,23.00
2019-05-18T20:42:06.458Z,23.00
2019-05-18T20:44:36.990Z,22.90
2019-05-18T20:47:07.545Z,22.90
2019-05-18T20:49:38.102Z,22.90
2019-05-18T20:52:08.670Z,22.80
2019-05-18T20:54:39.201Z,22.80
2019-05-18T20:57:09.959Z,22.70
2019-05-18T20:59:40.490Z,22.70
2019-05-18T21:02:12.251Z,22.70
2019-05-18T21:04:42.814Z,22.60
2019-05-18T21:07:13.754Z,22.60
2019-05-18T21:09:44.324Z,22.60
2019-05-18T21:12:14.879Z,22.50
2019-05-18T21:14:45.626Z,22.50
2019-05-18T21:17:16.312Z,22.50
2019-05-18T21:19:46.831Z,22.40
2019-05-18T21:22:17.412Z,22.40
2019-05-18T21:24:49.098Z,22.40
2019-05-18T21:27:19.794Z,22.40
2019-05-18T21:29:50.465Z,22.30
2019-05-18T21:32:22.287Z,22.30
2019-05-18T21:34:52.878Z,22.20
2019-05-18T21:37:23.738Z,22.20
2019-05-18T21:39:54.464Z,22.20
2019-05-18T21:42:25.030Z,22.10
2019-05-18T21:44:55.559Z,22.10
2019-05-18T21:47:26.131Z,22.10
2019-05-18T21:49:58.798Z,22.00
2019-05-18T21:52:29.506Z,22.00
2019-05-18T21:55:00.212Z,22.00
2019-05-18T21:57:30.866Z,21.90
2019-05-18T22:00:01.385Z,21.90
2019-05-18T22:02:32.078Z,21.90
2019-05-18T22:05:02.601Z,21.80
2019-05-18T22:07:33.265Z,21.80
2019-05-18T22:10:04.429Z,21.80
2019-05-18T22:12:35.230Z,21.70
2019-05-18T22:15:08.520Z,21.70
2019-05-18T22:17:58.051Z,21.70
2019-05-18T22:20:28.562Z,21.60
2019-05-18T22:22:59.327Z,21.60
2019-05-18T22:25:29.975Z,21.60
2019-05-18T22:28:00.594Z,21.60
2019-05-18T22:30:31.264Z,21.50
2019-05-18T22:33:01.810Z,21.50
2019-05-18T22:35:32.364Z,21.50
2019-05-18T22:38:03.020Z,21.40
2019-05-18T22:40:33.607Z,21.40
2019-05-18T22:43:04.165Z,21.40
2019-05-18T22:45:34.777Z,21.40
2019-05-18T22:48:05.354Z,21.40
2019-05-18T22:50:35.873Z,21.30
2019-05-18T22:53:06.605Z,21.30
2019-05-18T22:55:37.150Z,21.30
2019-05-18T22:58:07.888Z,21.30
2019-05-18T23:00:38.461Z,21.20
2019-05-18T23:03:09.013Z,21.20
2019-05-18T23:05:39.630Z,21.20
2019-05-18T23:08:10.301Z,21.10
2019-05-18T23:10:40.827Z,21.10
2019-05-18T23:13:12.859Z,21.10
2019-05-18T23:15:43.416Z,21.10
2019-05-18T23:18:14.003Z,21.00
2019-05-18T23:20:44.655Z,21.00
2019-05-18T23:23:15.278Z,21.00
2019-05-18T23:25:45.825Z,21.00
2019-05-18T23:28:16.381Z,21.00
2019-05-18T23:30:46.988Z,21.00
2019-05-18T23:33:17.586Z,20.90
2019-05-18T23:35:48.210Z,20.90
2019-05-18T23:38:18.764Z,20.90
2019-05-18T23:40:49.377Z,20.80
2019-05-18T23:43:19.987Z,20.80
2019-05-18T23:45:50.602Z,20.80
2019-05-18T23:48:21.190Z,20.80
2019-05-18T23:50:52.832Z,20.80
2019-05-18T23:53:23.416Z,20.80
2019-05-18T23:55:53.903Z,20.70
2019-05-18T23:58:24.548Z,20.70
